• Join FlightAware (Why Join?)
  • Login
  • US Flag 
11:10AM EDT


 

Airport Tracker/Info


-or-


 

Live Flight TrackerFlight Track Log ✈ AWE3878 ✈ 04-May-2013 ✈ KMYR - KDCA

Flight Track Log - Related Links

Times and Time Zones

All times are in EDT time to prevent confusion due to time zone crossing. See the AWE3878 flight status page for this flight to view local times or setup timezone preferences in your user account.

Time Position Orientation Groundspeed Altitude Reporting Facility
EDT Latitude Longitude Course Direction KTS MPH feet Rate Location/Type
11:24AM 33.8817 -78.5906 50° Northeast  Level FlightAware Approximate
11:24AM 33.8614 -78.8511 56° Northeast 248 285 7,900  Level Jacksonville Center
11:25AM 33.9379 -78.5099 51° Northeast  Level FlightAware Approximate
11:25AM 33.9203 -78.8008 35° Northeast 253 291 10,500  Level Jacksonville Center
11:26AM 33.9926 -78.4278 51° Northeast  Level FlightAware Approximate
11:27AM 34.0438 -78.3354 68° East  Level FlightAware Approximate
11:27AM 34.0128 -78.6058 60° Northeast 341 392 14,300  Level Washington Center
11:28AM 34.1063 -78.2553 56° Northeast  Level FlightAware Approximate
11:28AM 34.0592 -78.5072 60° Northeast 331 381 16,200  Level Washington Center
11:29AM 34.1581 -78.1621 56° Northeast  Level FlightAware Approximate
11:29AM 34.1075 -78.4086 59° Northeast 331 381 17,600  Level Washington Center
11:30AM 34.1619 -78.3075 57° Northeast 338 389 18,800 1,320 Climbing Washington Center
11:31AM 34.2628 -78.2706 17° North 341 392 20,300 1,320 Climbing Washington Center
11:32AM 34.3658 -78.2411 13° North 349 402 21,500 1,140 Climbing Washington Center
11:33AM 34.4708 -78.2094 14° North 369 425 22,700 1,080 Climbing Washington Center
11:34AM 34.5797 -78.1825 12° North 379 436 23,700 840 Climbing Washington Center
11:35AM 34.6639 -78.1575 14° North 391 450 24,400 720 Climbing Washington Center
11:36AM 34.7836 -78.1233 13° North 396 456 25,200 900 Climbing Washington Center
11:37AM 34.8950 -78.0864 15° North 396 456 26,300 840 Climbing Washington Center
11:38AM 35.0039 -78.0567 13° North 396 456 27,000 300 Climbing Washington Center
11:39AM 35.1217 -78.0197 14° North 407 468 27,000  Level Washington Center
11:40AM 35.2392 -77.9875 13° North 419 482 27,000  Level Washington Center
11:41AM 35.3672 -77.9506 13° North 424 488 27,000  Level Washington Center
11:42AM 35.4783 -77.9208 12° North 418 481 27,000  Level Washington Center
11:43AM 35.5917 -77.8858 14° North 413 475 27,000  Level Washington Center
11:44AM 35.7008 -77.8531 14° North 413 475 27,000  Level Washington Center
11:45AM 35.8097 -77.8228 13° North 408 470 27,000  Level Washington Center
11:46AM 35.9189 -77.7925 13° North 402 463 27,000  Level Washington Center
11:47AM 36.0258 -77.7622 13° North 397 457 27,000  Level Washington Center
11:48AM 36.1328 -77.7317 13° North 397 457 27,000  Level Washington Center
11:49AM 36.2397 -77.7011 13° North 397 457 27,000  Level Washington Center
11:50AM 36.3467 -77.6678 14° North 397 457 27,000  Level Washington Center
11:51AM 36.4517 -77.6372 13° North 397 457 27,000  Level Washington Center
11:52AM 36.5500 -77.6086 13° North 390 449 27,000  Level Washington Center
11:53AM 36.6569 -77.5778 13° North 390 449 27,000  Level Washington Center
11:54AM 36.7639 -77.5442 14° North 396 456 27,000  Level Washington Center
11:55AM 36.8708 -77.5131 13° North 396 456 27,000  Level Washington Center
11:56AM 36.9778 -77.4819 13° North 396 456 27,000 -240 Level Washington Center
11:57AM 37.0847 -77.4481 14° North 396 456 26,600 -900 Descending Washington Center
11:58AM 37.1936 -77.4142 14° North 396 456 25,300 -1,320 Descending Washington Center
11:59AM 37.2983 -77.3856 12° North 396 456 24,000 -1,380 Descending Washington Center
12:00PM 37.4117 -77.3514 13° North 386 444 22,600 -1,500 Descending Washington Center
12:01PM 37.5100 -77.3197 14° North 376 433 21,100 -1,560 Descending Washington Center
12:02PM 37.6125 -77.2983 North 370 426 19,600 -1,500 Descending Washington Center
12:03PM 37.7108 -77.2769 10° North 365 420 18,100 -1,380 Descending Washington Center
12:04PM 37.8050 -77.2581 North 354 407 16,900 -1,380 Descending Washington Center
12:05PM 37.8992 -77.2392 North 354 407 15,400 -1,560 Descending Washington Center
12:06PM 37.9953 -77.2203 North 349 402 13,900 -1,320 Descending Washington Center
12:07PM 38.0728 -77.2061 North 338 389 12,800 -1,260 Descending Washington Center
12:08PM 38.1625 -77.1894 North 325 374 11,400 -1,440 Descending Washington Center
12:09PM 38.2525 -77.1675 11° North 305 351 10,000 -780 Descending Washington Center
12:10PM 38.3217 -77.1531 North 289 333 9,900 -960 Descending Washington Center
12:11PM 38.4011 -77.1311 12° North 289 333 8,100 -1,680 Descending Washington Center
12:12PM 38.4744 -77.1114 12° North 278 320 6,600 -1,380 Descending Washington Center
12:13PM 38.5475 -77.0917 12° North 267 307 5,400 -840 Descending Washington Center
12:14PM 38.5981 -77.0553 29° Northeast 235 270 5,000 -720 Descending Washington Center
12:15PM 38.6500 -77.0333 18° North 207 238 4,200 -1,200 Descending Potomac TRACON
12:16PM 38.7000 -77.0333 360° North 208 239 2,900 -1,200 Descending Potomac TRACON
12:17PM 38.7500 -77.0333 360° North 178 205 1,900 -960 Descending Potomac TRACON
12:18PM 38.8000 -77.0333 360° North 141 162 1,000 -840 Descending Potomac TRACON